Hampden, Maine
Current Conditions -  °F | °C
As of 12:37 PM on Thursday 23 Oct 2014 (Local Time) from KBGR Reporting Station
Light Rain Light Rain  
Wind Chill: 50°   Ceiling: 1000
Heat Index: 50°   Visibility: 2mi
Dew Point: 48°   Wind: 16mph
Humidity: 93%   Direction: 40°NE
Pressure: 29.89"   Gusts: 25mph
Location:  44.75°N, 68.84°W
Report Text: KBGR 231637Z 04014G22KT 2SM -RA BR BKN010 OVC014 10/09 A2989 RMK AO2 SFC VIS 3 CIG 007V013 P0005 T01000089
Loading
Personal Weather Stations






























Interactive Weather Map
Tropical Storm Tracking
New forecast layout! Learn more

10-Day Weather Forecast

Advertisements
Track Severe Weather on mobile